Time;durP1;ratioP1;P1;durP2;ratioP2;P2;SDS_P1;SDS_P2;PMS_P1;PMS_P2;Temp;Humidity;BMP_temperature;BMP_pressure;BME280_temperature;BME280_humidity;BME280_pressure;Samples;Min_cycle;Max_cycle;Signal;HPM_P1;HPM_P2
2024/02/21 00:02:01;;;;;;;1.75;0.57;;;;;;;;;;5029031;28;20105;-77
2024/02/21 00:04:27;;;;;;;0.95;0.50;;;;;;;;;;5035311;28;20028;-78
2024/02/21 00:06:53;;;;;;;1.30;0.70;;;;;;;;;;5031118;28;20025;-78
2024/02/21 00:09:20;;;;;;;1.27;0.50;;;;;;;;;;5019239;28;20030;-76
2024/02/21 00:11:46;;;;;;;0.88;0.50;;;;;;;;;;5031552;28;20037;-78
2024/02/21 00:14:12;;;;;;;0.77;0.55;;;;;;;;;;5023443;28;20017;-79
2024/02/21 00:16:38;;;;;;;0.90;0.60;;;;;;;;;;5026459;28;20085;-80
2024/02/21 00:19:04;;;;;;;1.48;0.90;;;;;;;;;;5023911;28;20026;-77
2024/02/21 00:21:30;;;;;;;1.42;0.70;;;;;;;;;;5018506;28;20481;-78
2024/02/21 00:23:56;;;;;;;1.35;0.90;;;;;;;;;;5019420;28;20026;-78
2024/02/21 00:26:22;;;;;;;2.03;0.68;;;;;;;;;;5021874;28;20021;-81
2024/02/21 00:28:48;;;;;;;0.70;0.70;;;;;;;;;;5030239;28;20054;-77
2024/02/21 00:31:15;;;;;;;0.93;0.60;;;;;;;;;;5032986;28;20381;-78
2024/02/21 00:33:41;;;;;;;1.27;0.77;;;;;;;;;;5019429;28;20036;-78
2024/02/21 00:36:07;;;;;;;1.67;0.60;;;;;;;;;;5018756;28;20439;-76
2024/02/21 00:38:33;;;;;;;2.55;0.90;;;;;;;;;;5029691;28;20022;-79
2024/02/21 00:40:59;;;;;;;1.55;0.68;;;;;;;;;;5023373;28;20026;-77
2024/02/21 00:43:25;;;;;;;0.82;0.50;;;;;;;;;;5017969;28;20017;-78
2024/02/21 00:45:51;;;;;;;0.65;0.57;;;;;;;;;;5017503;28;20025;-79
2024/02/21 00:48:17;;;;;;;1.50;0.75;;;;;;;;;;5018493;28;20121;-76
2024/02/21 00:50:43;;;;;;;1.95;0.70;;;;;;;;;;5033130;28;20056;-77
2024/02/21 00:53:10;;;;;;;1.25;0.65;;;;;;;;;;5019754;28;20022;-76
2024/02/21 00:55:36;;;;;;;0.75;0.57;;;;;;;;;;5030381;28;20389;-78
2024/02/21 00:58:02;;;;;;;1.27;0.68;;;;;;;;;;5027427;28;20550;-78
2024/02/21 01:00:28;;;;;;;1.38;0.70;;;;;;;;;;5044776;28;20493;-78
2024/02/21 01:02:54;;;;;;;2.63;1.00;;;;;;;;;;5034168;28;20030;-78
2024/02/21 01:05:21;;;;;;;1.45;0.60;;;;;;;;;;5041458;28;20030;-79
2024/02/21 01:07:47;;;;;;;1.48;0.88;;;;;;;;;;5031161;28;20103;-78
2024/02/21 01:10:13;;;;;;;1.83;1.02;;;;;;;;;;5016458;28;20346;-77
2024/02/21 01:12:39;;;;;;;1.95;0.80;;;;;;;;;;5019069;28;20022;-78
2024/02/21 01:15:05;;;;;;;2.50;1.17;;;;;;;;;;5017947;28;20034;-79
2024/02/21 01:17:31;;;;;;;1.52;0.88;;;;;;;;;;5031989;28;20026;-77
2024/02/21 01:19:57;;;;;;;1.67;0.80;;;;;;;;;;5018044;28;20038;-79
2024/02/21 01:22:23;;;;;;;1.10;0.73;;;;;;;;;;5016369;28;20521;-78
2024/02/21 01:24:49;;;;;;;1.40;0.80;;;;;;;;;;5040395;28;20045;-78
2024/02/21 01:27:16;;;;;;;2.85;1.33;;;;;;;;;;5028297;28;20040;-77
2024/02/21 01:29:42;;;;;;;1.25;0.80;;;;;;;;;;5029664;28;20052;-77
2024/02/21 01:32:08;;;;;;;2.00;0.82;;;;;;;;;;5023975;28;20032;-78
2024/02/21 01:34:34;;;;;;;1.85;0.95;;;;;;;;;;5034957;28;20081;-78
2024/02/21 01:37:04;;;;;;;3.05;1.13;;;;;;;;;;5022803;28;20512;-77
2024/02/21 01:39:30;;;;;;;1.75;0.85;;;;;;;;;;5026065;28;20021;-78
2024/02/21 01:41:56;;;;;;;2.28;0.93;;;;;;;;;;5035753;28;20029;-76
2024/02/21 01:44:22;;;;;;;1.67;0.77;;;;;;;;;;5028818;28;20030;-78
2024/02/21 01:46:48;;;;;;;1.40;0.65;;;;;;;;;;5041910;28;20041;-75
2024/02/21 01:49:14;;;;;;;2.05;1.23;;;;;;;;;;5032623;28;20045;-77
2024/02/21 01:51:41;;;;;;;2.28;0.98;;;;;;;;;;5022717;28;20058;-77
2024/02/21 01:54:07;;;;;;;1.70;0.85;;;;;;;;;;5022985;28;20049;-77
2024/02/21 01:56:33;;;;;;;1.52;0.70;;;;;;;;;;5039047;28;20022;-79
2024/02/21 01:58:59;;;;;;;0.77;0.70;;;;;;;;;;5023067;28;20022;-78
2024/02/21 02:01:26;;;;;;;0.70;0.60;;;;;;;;;;5026871;28;20026;-77
2024/02/21 02:03:52;;;;;;;2.05;0.70;;;;;;;;;;5026930;28;20041;-76
2024/02/21 02:06:18;;;;;;;1.02;0.43;;;;;;;;;;5021194;28;20025;-79
2024/02/21 02:08:44;;;;;;;0.38;0.38;;;;;;;;;;5042218;28;20022;-78
2024/02/21 02:11:11;;;;;;;0.50;0.50;;;;;;;;;;5029136;28;20028;-77
2024/02/21 02:13:37;;;;;;;1.02;0.60;;;;;;;;;;5035642;28;20019;-76
2024/02/21 02:16:03;;;;;;;1.75;0.80;;;;;;;;;;5022749;28;20078;-76
2024/02/21 02:18:29;;;;;;;1.73;0.63;;;;;;;;;;5032112;28;20075;-78
2024/02/21 02:20:56;;;;;;;0.60;0.55;;;;;;;;;;5042538;28;20083;-78
2024/02/21 02:23:26;;;;;;;1.40;0.80;;;;;;;;;;5033248;28;20026;-76
2024/02/21 02:25:52;;;;;;;1.00;0.93;;;;;;;;;;5029179;28;20465;-77
2024/02/21 02:28:18;;;;;;;2.15;0.70;;;;;;;;;;5023636;28;20040;-77
2024/02/21 02:30:45;;;;;;;2.92;0.80;;;;;;;;;;5034094;28;20030;-75
2024/02/21 02:33:11;;;;;;;0.80;0.73;;;;;;;;;;5030085;28;20065;-76
2024/02/21 02:35:37;;;;;;;1.50;0.70;;;;;;;;;;5033481;28;20091;-78
2024/02/21 02:38:04;;;;;;;1.23;0.73;;;;;;;;;;5020904;28;20042;-76
2024/02/21 02:40:30;;;;;;;1.55;0.70;;;;;;;;;;5021143;28;20026;-78
2024/02/21 02:42:56;;;;;;;1.40;0.70;;;;;;;;;;5019681;28;20022;-79
2024/02/21 02:45:23;;;;;;;2.25;0.68;;;;;;;;;;5029527;28;20088;-77
2024/02/21 02:47:50;;;;;;;1.35;0.60;;;;;;;;;;5019002;28;20037;-78
2024/02/21 02:50:16;;;;;;;0.77;0.60;;;;;;;;;;5034010;28;20026;-76
2024/02/21 02:52:42;;;;;;;0.95;0.50;;;;;;;;;;5011584;28;20026;-77
2024/02/21 02:55:08;;;;;;;0.70;0.50;;;;;;;;;;5019398;28;20026;-78
2024/02/21 02:57:34;;;;;;;1.77;0.77;;;;;;;;;;5033383;28;20056;-79
2024/02/21 03:00:00;;;;;;;1.65;0.63;;;;;;;;;;5019070;28;20033;-78
2024/02/21 03:02:26;;;;;;;1.67;0.82;;;;;;;;;;5018863;28;20030;-78
2024/02/21 03:04:53;;;;;;;1.50;0.77;;;;;;;;;;5039896;28;20033;-77
2024/02/21 03:07:19;;;;;;;0.70;0.50;;;;;;;;;;5023021;28;20025;-78
2024/02/21 03:09:45;;;;;;;1.80;0.55;;;;;;;;;;5019898;28;20037;-77
2024/02/21 03:12:12;;;;;;;1.92;0.80;;;;;;;;;;5027626;28;20050;-79
2024/02/21 03:14:38;;;;;;;1.00;0.60;;;;;;;;;;5031546;28;20026;-78
2024/02/21 03:17:05;;;;;;;0.43;0.43;;;;;;;;;;5030774;28;20419;-78
2024/02/21 03:19:31;;;;;;;1.30;0.55;;;;;;;;;;5017109;28;20025;-79
2024/02/21 03:21:57;;;;;;;0.90;0.50;;;;;;;;;;5033612;28;20030;-78
2024/02/21 03:24:23;;;;;;;0.70;0.50;;;;;;;;;;5042163;28;20052;-77
2024/02/21 03:26:50;;;;;;;0.50;0.50;;;;;;;;;;5029994;28;20025;-78
2024/02/21 03:29:17;;;;;;;1.25;0.85;;;;;;;;;;5020222;28;20025;-78
2024/02/21 03:31:43;;;;;;;0.77;0.50;;;;;;;;;;5019454;28;20389;-78
2024/02/21 03:34:13;;;;;;;1.17;0.55;;;;;;;;;;5018148;28;20022;-77
2024/02/21 03:36:39;;;;;;;1.38;0.60;;;;;;;;;;5018581;28;20025;-77
2024/02/21 03:39:05;;;;;;;1.00;0.60;;;;;;;;;;5044735;28;20030;-77
2024/02/21 03:41:31;;;;;;;1.98;0.70;;;;;;;;;;5026420;28;20021;-78
2024/02/21 03:43:57;;;;;;;1.40;0.75;;;;;;;;;;5028731;28;20030;-78
2024/02/21 03:46:25;;;;;;;0.88;0.50;;;;;;;;;;5029360;28;20036;-78
2024/02/21 03:48:51;;;;;;;0.60;0.40;;;;;;;;;;5030783;28;20080;-77
2024/02/21 03:51:17;;;;;;;0.47;0.40;;;;;;;;;;5035458;28;20081;-77
2024/02/21 03:53:43;;;;;;;0.47;0.47;;;;;;;;;;5039426;28;20014;-77
2024/02/21 03:56:09;;;;;;;0.65;0.50;;;;;;;;;;5040321;28;20468;-78
2024/02/21 03:58:35;;;;;;;2.45;0.60;;;;;;;;;;5039464;28;20077;-78
2024/02/21 04:01:01;;;;;;;0.43;0.43;;;;;;;;;;5031571;28;20044;-76
2024/02/21 04:03:28;;;;;;;1.70;0.65;;;;;;;;;;5030499;28;20056;-76
2024/02/21 04:05:54;;;;;;;1.35;0.60;;;;;;;;;;5030701;28;20026;-77
2024/02/21 04:08:20;;;;;;;0.85;0.40;;;;;;;;;;5021652;28;20096;-77
2024/02/21 04:10:46;;;;;;;0.60;0.40;;;;;;;;;;5029660;28;20031;-77
2024/02/21 04:13:12;;;;;;;1.63;0.50;;;;;;;;;;5029948;28;20030;-78
2024/02/21 04:15:38;;;;;;;2.40;0.55;;;;;;;;;;5038117;28;20044;-77
2024/02/21 04:18:04;;;;;;;0.95;0.68;;;;;;;;;;5036274;28;20160;-77
2024/02/21 04:20:30;;;;;;;1.88;0.90;;;;;;;;;;5029150;28;20037;-77
2024/02/21 04:22:57;;;;;;;0.50;0.38;;;;;;;;;;5040255;28;20045;-77
2024/02/21 04:25:23;;;;;;;1.45;0.40;;;;;;;;;;5037124;28;20030;-78
2024/02/21 04:27:49;;;;;;;0.77;0.60;;;;;;;;;;5032627;28;20097;-77
2024/02/21 04:30:15;;;;;;;2.25;0.50;;;;;;;;;;5028897;28;20034;-77
2024/02/21 04:32:41;;;;;;;0.93;0.50;;;;;;;;;;5034456;28;20026;-77
2024/02/21 04:35:08;;;;;;;0.60;0.40;;;;;;;;;;5030327;28;20026;-77
2024/02/21 04:37:34;;;;;;;0.30;0.30;;;;;;;;;;5038668;28;20022;-77
2024/02/21 04:40:00;;;;;;;0.43;0.40;;;;;;;;;;5015716;28;20052;-78
2024/02/21 04:42:26;;;;;;;1.80;0.40;;;;;;;;;;5028488;28;20022;-78
2024/02/21 04:44:52;;;;;;;1.00;0.52;;;;;;;;;;5029618;28;20053;-78
2024/02/21 04:47:19;;;;;;;1.63;0.40;;;;;;;;;;5043761;28;20041;-77
2024/02/21 04:49:46;;;;;;;0.82;0.70;;;;;;;;;;5048074;28;20035;-77
2024/02/21 04:52:12;;;;;;;0.47;0.40;;;;;;;;;;5027483;28;20033;-78
2024/02/21 04:54:38;;;;;;;0.52;0.50;;;;;;;;;;5034459;28;20029;-77
2024/02/21 04:57:04;;;;;;;0.38;0.38;;;;;;;;;;5031787;28;20034;-77
2024/02/21 04:59:31;;;;;;;0.70;0.40;;;;;;;;;;5029739;28;20026;-78
2024/02/21 05:01:58;;;;;;;1.05;0.43;;;;;;;;;;5037321;28;20089;-77
2024/02/21 05:04:24;;;;;;;0.85;0.40;;;;;;;;;;5044811;28;20109;-77
2024/02/21 05:06:50;;;;;;;0.30;0.30;;;;;;;;;;5028309;28;20030;-77
2024/02/21 05:09:16;;;;;;;0.43;0.40;;;;;;;;;;5028246;28;20045;-79
2024/02/21 05:11:42;;;;;;;0.60;0.30;;;;;;;;;;5027682;28;20030;-78
2024/02/21 05:14:08;;;;;;;1.08;0.43;;;;;;;;;;5038540;28;20049;-80
2024/02/21 05:16:34;;;;;;;0.38;0.38;;;;;;;;;;5041272;28;20032;-77
2024/02/21 05:19:01;;;;;;;0.40;0.30;;;;;;;;;;5041011;28;20053;-75
2024/02/21 05:21:28;;;;;;;1.27;0.45;;;;;;;;;;5035622;28;20021;-78
2024/02/21 05:23:54;;;;;;;0.60;0.50;;;;;;;;;;5041950;28;20053;-78
2024/02/21 05:26:21;;;;;;;1.65;0.38;;;;;;;;;;5031901;28;20030;-78
2024/02/21 05:28:47;;;;;;;0.85;0.52;;;;;;;;;;5028670;28;20029;-79
2024/02/21 05:31:14;;;;;;;1.15;0.25;;;;;;;;;;5027788;28;20036;-77
2024/02/21 05:33:40;;;;;;;1.02;0.57;;;;;;;;;;5029204;28;20018;-77
2024/02/21 05:36:06;;;;;;;0.40;0.40;;;;;;;;;;5045257;28;20030;-77
2024/02/21 05:38:33;;;;;;;1.20;0.52;;;;;;;;;;5023498;28;20101;-77
2024/02/21 05:40:59;;;;;;;0.60;0.43;;;;;;;;;;5030216;28;20076;-76
2024/02/21 05:43:25;;;;;;;0.85;0.40;;;;;;;;;;5038037;28;20030;-78
2024/02/21 05:45:51;;;;;;;0.40;0.40;;;;;;;;;;5040532;28;20019;-78
2024/02/21 05:48:17;;;;;;;0.43;0.40;;;;;;;;;;5027366;28;20045;-77
2024/02/21 05:50:43;;;;;;;0.40;0.30;;;;;;;;;;5028798;28;20029;-78
2024/02/21 05:53:10;;;;;;;0.43;0.30;;;;;;;;;;5029018;28;20127;-77
2024/02/21 05:55:37;;;;;;;0.20;0.20;;;;;;;;;;5039964;28;20105;-77
2024/02/21 05:58:03;;;;;;;0.38;0.38;;;;;;;;;;5040588;28;20022;-76
2024/02/21 06:00:29;;;;;;;0.43;0.38;;;;;;;;;;5033075;28;20053;-77
2024/02/21 06:02:55;;;;;;;0.50;0.30;;;;;;;;;;5028472;28;20030;-78
2024/02/21 06:05:22;;;;;;;0.57;0.40;;;;;;;;;;5028047;28;20022;-78
2024/02/21 06:07:48;;;;;;;0.57;0.40;;;;;;;;;;5048814;28;20022;-76
2024/02/21 06:10:15;;;;;;;0.20;0.20;;;;;;;;;;5027473;28;20038;-76
2024/02/21 06:12:41;;;;;;;0.55;0.38;;;;;;;;;;5025776;28;20454;-78
2024/02/21 06:15:07;;;;;;;0.30;0.30;;;;;;;;;;5041312;28;20347;-78
2024/02/21 06:17:33;;;;;;;0.40;0.40;;;;;;;;;;5028701;28;20080;-77
2024/02/21 06:19:59;;;;;;;0.50;0.40;;;;;;;;;;5042817;28;20443;-77
2024/02/21 06:22:26;;;;;;;0.28;0.25;;;;;;;;;;5029479;28;20022;-76
2024/02/21 06:24:54;;;;;;;0.40;0.30;;;;;;;;;;5036317;28;20030;-78
2024/02/21 06:27:20;;;;;;;1.42;0.50;;;;;;;;;;5030819;28;20026;-78
2024/02/21 06:29:46;;;;;;;0.30;0.17;;;;;;;;;;5041010;28;20021;-76
2024/02/21 06:32:12;;;;;;;0.68;0.30;;;;;;;;;;5038552;28;20048;-79
2024/02/21 06:34:38;;;;;;;0.45;0.40;;;;;;;;;;5052109;28;20037;-77
2024/02/21 06:37:05;;;;;;;0.32;0.32;;;;;;;;;;5034381;28;20026;-77
2024/02/21 06:39:31;;;;;;;2.72;0.50;;;;;;;;;;5036297;28;20026;-78
2024/02/21 06:41:57;;;;;;;1.15;0.40;;;;;;;;;;5026615;28;20040;-79
2024/02/21 06:44:23;;;;;;;0.70;0.38;;;;;;;;;;5027135;28;20033;-78
2024/02/21 06:46:49;;;;;;;0.20;0.20;;;;;;;;;;5044361;28;20049;-77
2024/02/21 06:49:18;;;;;;;0.45;0.20;;;;;;;;;;5039190;28;20038;-77
2024/02/21 06:51:44;;;;;;;0.80;0.50;;;;;;;;;;5027943;28;20378;-79
2024/02/21 06:54:10;;;;;;;0.40;0.30;;;;;;;;;;5034082;28;20017;-77
2024/02/21 06:56:37;;;;;;;0.40;0.40;;;;;;;;;;5027941;28;20041;-76
2024/02/21 06:59:03;;;;;;;0.60;0.50;;;;;;;;;;5036839;28;20092;-77
2024/02/21 07:01:29;;;;;;;0.43;0.35;;;;;;;;;;5035080;28;20045;-78
2024/02/21 07:03:56;;;;;;;0.30;0.30;;;;;;;;;;5026613;28;20018;-79
2024/02/21 07:06:22;;;;;;;1.15;0.57;;;;;;;;;;5035700;28;20032;-77
2024/02/21 07:08:48;;;;;;;1.33;1.10;;;;;;;;;;5026068;28;20044;-77
2024/02/21 07:11:14;;;;;;;1.15;1.00;;;;;;;;;;5028095;28;20425;-77
2024/02/21 07:13:40;;;;;;;1.70;1.23;;;;;;;;;;5032894;28;20018;-76
2024/02/21 07:16:07;;;;;;;1.17;0.80;;;;;;;;;;5046804;28;20037;-77
2024/02/21 07:18:34;;;;;;;1.02;0.90;;;;;;;;;;5041966;28;20030;-78
2024/02/21 07:21:00;;;;;;;1.50;1.13;;;;;;;;;;5024676;28;20033;-78
2024/02/21 07:23:26;;;;;;;0.82;0.65;;;;;;;;;;5025430;28;20022;-77
2024/02/21 07:25:52;;;;;;;0.95;0.73;;;;;;;;;;5031576;28;20010;-77
2024/02/21 07:28:18;;;;;;;0.50;0.50;;;;;;;;;;5034135;28;20056;-77
2024/02/21 07:30:45;;;;;;;1.67;0.60;;;;;;;;;;5032109;28;20367;-78
2024/02/21 07:33:11;;;;;;;0.40;0.40;;;;;;;;;;5028480;28;20425;-77
2024/02/21 07:35:37;;;;;;;0.65;0.52;;;;;;;;;;5046263;28;20084;-77
2024/02/21 07:38:05;;;;;;;0.30;0.30;;;;;;;;;;5020104;28;20025;-78
2024/02/21 07:40:31;;;;;;;1.33;0.30;;;;;;;;;;5020659;28;20026;-77
2024/02/21 07:42:57;;;;;;;0.32;0.30;;;;;;;;;;5028488;28;20026;-77
2024/02/21 07:45:24;;;;;;;0.82;0.30;;;;;;;;;;5021931;28;20123;-78
2024/02/21 07:47:50;;;;;;;0.50;0.40;;;;;;;;;;5021657;28;20056;-77
2024/02/21 07:50:16;;;;;;;0.40;0.40;;;;;;;;;;5020513;28;20081;-78
2024/02/21 07:52:43;;;;;;;0.30;0.30;;;;;;;;;;5021066;28;20026;-78
2024/02/21 07:55:10;;;;;;;1.92;0.30;;;;;;;;;;5019496;28;20286;-79
2024/02/21 07:57:38;;;;;;;0.40;0.30;;;;;;;;;;5023060;28;20048;-77
2024/02/21 08:00:04;;;;;;;0.20;0.20;;;;;;;;;;5034859;28;20402;-76
2024/02/21 08:02:30;;;;;;;0.25;0.25;;;;;;;;;;5038880;28;20022;-77
2024/02/21 08:04:56;;;;;;;0.10;0.10;;;;;;;;;;5030712;28;20088;-77
2024/02/21 08:07:22;;;;;;;0.28;0.20;;;;;;;;;;5021173;28;20026;-78
2024/02/21 08:09:48;;;;;;;0.30;0.30;;;;;;;;;;5021782;28;20026;-78
2024/02/21 08:12:15;;;;;;;0.10;0.10;;;;;;;;;;5032528;28;20033;-78
2024/02/21 08:14:41;;;;;;;0.50;0.25;;;;;;;;;;5015952;28;20021;-77
2024/02/21 08:17:07;;;;;;;0.20;0.20;;;;;;;;;;5021699;28;20125;-78
2024/02/21 08:19:35;;;;;;;0.30;0.30;;;;;;;;;;5023032;28;20446;-77
2024/02/21 08:22:03;;;;;;;0.35;0.20;;;;;;;;;;5029776;28;20489;-76
2024/02/21 08:24:29;;;;;;;0.28;0.28;;;;;;;;;;5018595;28;20028;-77
2024/02/21 08:26:55;;;;;;;0.43;0.30;;;;;;;;;;5021684;28;20030;-78
2024/02/21 08:29:21;;;;;;;0.25;0.25;;;;;;;;;;5019546;28;20508;-78
2024/02/21 08:31:47;;;;;;;1.58;0.47;;;;;;;;;;5017893;28;20033;-77
2024/02/21 08:34:13;;;;;;;0.45;0.43;;;;;;;;;;5027563;28;20431;-79
2024/02/21 08:36:39;;;;;;;0.28;0.25;;;;;;;;;;5024378;28;20025;-78
2024/02/21 08:39:05;;;;;;;0.10;0.10;;;;;;;;;;5045160;28;20030;-78
2024/02/21 08:41:32;;;;;;;0.20;0.20;;;;;;;;;;5042691;28;20025;-78
2024/02/21 08:43:58;;;;;;;0.40;0.28;;;;;;;;;;5020817;28;20030;-81
2024/02/21 08:46:25;;;;;;;0.82;0.30;;;;;;;;;;5022525;28;20033;-77
2024/02/21 08:48:52;;;;;;;0.38;0.20;;;;;;;;;;5036551;28;20023;-77
2024/02/21 08:51:18;;;;;;;0.20;0.17;;;;;;;;;;5014786;28;20041;-78
2024/02/21 08:53:45;;;;;;;0.30;0.30;;;;;;;;;;5014935;28;20080;-78
2024/02/21 08:56:11;;;;;;;0.65;0.28;;;;;;;;;;5035161;28;20026;-78
2024/02/21 08:58:37;;;;;;;0.57;0.30;;;;;;;;;;5025426;28;20044;-77
2024/02/21 09:01:05;;;;;;;1.05;0.20;;;;;;;;;;5020373;28;20034;-78
2024/02/21 09:03:34;;;;;;;0.43;0.40;;;;;;;;;;5036242;28;20026;-78
2024/02/21 09:06:01;;;;;;;0.28;0.20;;;;;;;;;;5031263;28;20030;-77
2024/02/21 09:08:27;;;;;;;0.30;0.30;;;;;;;;;;5036830;28;20025;-78
2024/02/21 09:10:53;;;;;;;0.50;0.50;;;;;;;;;;5025928;28;20053;-77
2024/02/21 09:13:19;;;;;;;0.55;0.50;;;;;;;;;;5024958;28;20030;-77
2024/02/21 09:15:46;;;;;;;2.03;0.50;;;;;;;;;;5026862;28;20025;-79
2024/02/21 09:18:12;;;;;;;0.68;0.40;;;;;;;;;;5026670;28;20417;-77
2024/02/21 09:20:38;;;;;;;2.38;0.43;;;;;;;;;;5027452;28;20022;-78
2024/02/21 09:23:04;;;;;;;0.30;0.30;;;;;;;;;;5027096;28;20037;-77
2024/02/21 09:25:31;;;;;;;0.80;0.35;;;;;;;;;;5029282;28;20029;-77
2024/02/21 09:27:58;;;;;;;1.23;0.82;;;;;;;;;;5028740;28;20037;-78
2024/02/21 09:30:24;;;;;;;0.75;0.50;;;;;;;;;;5019914;28;20053;-77
2024/02/21 09:32:50;;;;;;;0.35;0.35;;;;;;;;;;5031873;28;20580;-81
2024/02/21 09:35:16;;;;;;;0.55;0.50;;;;;;;;;;5031990;28;20094;-77
2024/02/21 09:37:43;;;;;;;0.68;0.40;;;;;;;;;;5017612;28;20062;-77
2024/02/21 09:40:09;;;;;;;0.30;0.30;;;;;;;;;;5051548;28;20504;-78
2024/02/21 09:42:35;;;;;;;0.57;0.30;;;;;;;;;;5025581;28;20061;-76
2024/02/21 09:45:02;;;;;;;1.90;0.63;;;;;;;;;;5040993;28;20061;-78
2024/02/21 09:47:34;;;;;;;0.63;0.43;;;;;;;;;;5037949;28;20045;-78
2024/02/21 09:50:02;;;;;;;1.75;0.50;;;;;;;;;;5027818;28;20030;-78
2024/02/21 09:52:28;;;;;;;0.60;0.60;;;;;;;;;;5037401;28;20398;-76
2024/02/21 09:54:54;;;;;;;0.75;0.55;;;;;;;;;;5038592;28;20499;-79
2024/02/21 09:57:20;;;;;;;0.65;0.30;;;;;;;;;;5030117;28;20013;-77
2024/02/21 09:59:47;;;;;;;0.77;0.60;;;;;;;;;;5041850;28;20037;-78
2024/02/21 10:02:13;;;;;;;0.50;0.25;;;;;;;;;;5031644;28;20125;-77
2024/02/21 10:04:41;;;;;;;0.43;0.43;;;;;;;;;;5047463;28;20388;-77
2024/02/21 10:07:07;;;;;;;0.85;0.45;;;;;;;;;;5051542;28;20057;-78
2024/02/21 10:09:33;;;;;;;0.73;0.40;;;;;;;;;;5033196;28;20022;-78
2024/02/21 10:12:10;;;;;;;2.13;0.40;;;;;;;;;;5032828;28;20033;-78
2024/02/21 10:14:36;;;;;;;1.05;0.30;;;;;;;;;;5022567;28;20022;-78
2024/02/21 10:17:03;;;;;;;0.93;0.73;;;;;;;;;;5023422;28;20026;-78
2024/02/21 10:19:29;;;;;;;0.63;0.57;;;;;;;;;;5023201;28;20022;-78
2024/02/21 10:22:07;;;;;;;0.65;0.45;;;;;;;;;;5024964;28;20114;-80
2024/02/21 10:24:33;;;;;;;0.85;0.60;;;;;;;;;;5052138;28;20025;-76
2024/02/21 10:27:13;;;;;;;0.77;0.47;;;;;;;;;;5062774;28;20108;-77
2024/02/21 10:29:39;;;;;;;0.38;0.30;;;;;;;;;;5032945;28;20041;-77
2024/02/21 10:32:10;;;;;;;0.88;0.25;;;;;;;;;;5052812;28;20025;-78
2024/02/21 10:34:37;;;;;;;1.10;0.63;;;;;;;;;;5059156;28;20042;-76
2024/02/21 10:37:04;;;;;;;0.38;0.30;;;;;;;;;;5035237;28;20014;-75
2024/02/21 10:39:33;;;;;;;2.15;0.45;;;;;;;;;;5035324;28;20021;-77
2024/02/21 10:42:03;;;;;;;0.70;0.38;;;;;;;;;;5039034;28;20021;-76
2024/02/21 10:44:31;;;;;;;1.15;0.40;;;;;;;;;;5039087;28;20029;-77
2024/02/21 10:46:57;;;;;;;0.68;0.30;;;;;;;;;;5054206;28;20069;-75
2024/02/21 10:49:31;;;;;;;0.55;0.30;;;;;;;;;;5047448;28;20042;-76
2024/02/21 10:52:06;;;;;;;0.43;0.30;;;;;;;;;;5051779;28;20106;-77
2024/02/21 10:54:35;;;;;;;0.30;0.30;;;;;;;;;;5039153;28;20060;-76
2024/02/21 10:57:03;;;;;;;0.43;0.40;;;;;;;;;;5046104;28;20036;-76
2024/02/21 10:59:31;;;;;;;1.10;0.47;;;;;;;;;;5038888;28;20014;-77
2024/02/21 11:01:57;;;;;;;1.17;0.38;;;;;;;;;;5030054;28;20030;-77
2024/02/21 11:04:24;;;;;;;0.50;0.30;;;;;;;;;;5025879;28;20029;-78
2024/02/21 11:06:51;;;;;;;0.40;0.40;;;;;;;;;;5038645;28;20130;-78
2024/02/21 11:09:17;;;;;;;0.30;0.30;;;;;;;;;;5021942;28;20041;-78
2024/02/21 11:11:44;;;;;;;1.02;0.40;;;;;;;;;;5024559;28;20085;-78
2024/02/21 11:14:11;;;;;;;0.20;0.20;;;;;;;;;;5038952;28;20025;-77
2024/02/21 11:16:42;;;;;;;0.40;0.40;;;;;;;;;;5020235;28;20044;-78
2024/02/21 11:19:09;;;;;;;0.40;0.40;;;;;;;;;;5021108;28;20022;-78
2024/02/21 11:21:36;;;;;;;0.30;0.30;;;;;;;;;;5034356;28;20108;-77
2024/02/21 11:24:03;;;;;;;0.57;0.32;;;;;;;;;;5034126;28;20026;-78
2024/02/21 11:26:29;;;;;;;0.30;0.30;;;;;;;;;;5033534;28;20478;-78
2024/02/21 11:29:05;;;;;;;0.22;0.22;;;;;;;;;;5020437;28;20034;-78
2024/02/21 11:31:41;;;;;;;0.30;0.30;;;;;;;;;;5010594;28;20014;-77
2024/02/21 11:34:13;;;;;;;0.25;0.25;;;;;;;;;;5018712;28;20104;-78
2024/02/21 11:36:49;;;;;;;0.30;0.30;;;;;;;;;;5033285;28;20019;-78
2024/02/21 11:39:20;;;;;;;0.73;0.40;;;;;;;;;;5019026;28;20026;-77
2024/02/21 11:41:47;;;;;;;0.40;0.40;;;;;;;;;;5017818;28;20025;-77
2024/02/21 11:44:13;;;;;;;0.35;0.30;;;;;;;;;;5038614;28;20531;-77
2024/02/21 11:46:39;;;;;;;0.20;0.20;;;;;;;;;;5029179;28;20032;-77
2024/02/21 11:49:05;;;;;;;0.20;0.20;;;;;;;;;;5023086;28;20029;-78
2024/02/21 11:51:31;;;;;;;0.28;0.20;;;;;;;;;;5019665;28;20022;-78
2024/02/21 11:53:57;;;;;;;0.30;0.30;;;;;;;;;;5034339;28;20056;-77
2024/02/21 11:56:24;;;;;;;0.40;0.40;;;;;;;;;;5035973;28;20032;-78
2024/02/21 11:58:53;;;;;;;0.57;0.40;;;;;;;;;;5036264;28;20521;-78
2024/02/21 12:01:19;;;;;;;0.38;0.35;;;;;;;;;;5017372;28;20022;-78
2024/02/21 12:03:49;;;;;;;0.45;0.30;;;;;;;;;;5027334;28;20033;-78
2024/02/21 12:06:19;;;;;;;0.30;0.30;;;;;;;;;;5018978;28;20033;-77
2024/02/21 12:08:45;;;;;;;1.40;0.63;;;;;;;;;;5024344;28;20026;-79
2024/02/21 12:11:21;;;;;;;0.40;0.40;;;;;;;;;;5027065;28;20085;-78
2024/02/21 12:13:48;;;;;;;0.40;0.40;;;;;;;;;;5033321;28;20006;-78
2024/02/21 12:16:18;;;;;;;0.35;0.35;;;;;;;;;;5031324;28;20014;-78
2024/02/21 12:18:44;;;;;;;0.30;0.30;;;;;;;;;;5033856;28;20030;-77
2024/02/21 12:21:10;;;;;;;0.63;0.40;;;;;;;;;;5030104;28;20045;-77
2024/02/21 12:23:39;;;;;;;0.65;0.63;;;;;;;;;;5025934;28;20018;-78
2024/02/21 12:26:05;;;;;;;0.20;0.20;;;;;;;;;;5040072;28;20029;-77
2024/02/21 12:28:31;;;;;;;0.30;0.30;;;;;;;;;;5028709;28;20497;-78
2024/02/21 12:30:57;;;;;;;0.20;0.20;;;;;;;;;;5029166;28;20100;-78
2024/02/21 12:33:23;;;;;;;0.20;0.20;;;;;;;;;;5034795;28;20032;-78
2024/02/21 12:35:49;;;;;;;0.22;0.22;;;;;;;;;;5021846;28;20036;-78
2024/02/21 12:38:17;;;;;;;0.28;0.28;;;;;;;;;;5020106;28;20033;-78
2024/02/21 12:40:43;;;;;;;0.20;0.20;;;;;;;;;;5031977;28;20025;-79
2024/02/21 12:43:09;;;;;;;0.13;0.13;;;;;;;;;;5016646;28;20501;-77
2024/02/21 12:45:36;;;;;;;0.20;0.20;;;;;;;;;;5032639;28;20036;-78
2024/02/21 12:48:02;;;;;;;0.20;0.20;;;;;;;;;;5034377;28;20492;-79
2024/02/21 12:50:28;;;;;;;0.10;0.10;;;;;;;;;;5021326;28;20124;-78
2024/02/21 12:52:54;;;;;;;0.10;0.10;;;;;;;;;;5020226;28;20500;-78
2024/02/21 12:55:20;;;;;;;0.95;0.30;;;;;;;;;;5026148;28;20436;-79
2024/02/21 12:57:46;;;;;;;0.30;0.30;;;;;;;;;;5024112;28;20032;-78
2024/02/21 13:00:12;;;;;;;0.50;0.30;;;;;;;;;;5023909;28;20084;-78
2024/02/21 13:02:38;;;;;;;0.80;0.50;;;;;;;;;;5019491;28;20030;-78
2024/02/21 13:05:05;;;;;;;0.30;0.30;;;;;;;;;;5022013;28;20026;-78
2024/02/21 13:07:32;;;;;;;0.38;0.38;;;;;;;;;;5041648;28;20105;-78
2024/02/21 13:09:58;;;;;;;0.30;0.30;;;;;;;;;;5036114;28;20052;-78
2024/02/21 13:12:26;;;;;;;0.52;0.20;;;;;;;;;;5035428;28;20025;-77
2024/02/21 13:14:52;;;;;;;0.25;0.25;;;;;;;;;;5036604;28;20025;-77
2024/02/21 13:17:18;;;;;;;0.43;0.43;;;;;;;;;;5035902;28;20041;-77
2024/02/21 13:19:44;;;;;;;0.30;0.30;;;;;;;;;;5052283;28;20029;-77
2024/02/21 13:22:11;;;;;;;0.88;0.50;;;;;;;;;;5036143;28;20084;-77
2024/02/21 13:24:37;;;;;;;0.73;0.70;;;;;;;;;;5036421;28;20065;-77
2024/02/21 13:27:03;;;;;;;0.25;0.20;;;;;;;;;;5034439;28;20021;-77
2024/02/21 13:29:29;;;;;;;0.60;0.30;;;;;;;;;;5044075;28;20046;-77
2024/02/21 13:31:55;;;;;;;0.20;0.20;;;;;;;;;;5035845;28;20154;-78
2024/02/21 13:34:21;;;;;;;1.02;0.40;;;;;;;;;;5036728;28;20037;-78
2024/02/21 13:36:47;;;;;;;0.35;0.35;;;;;;;;;;5035048;28;20098;-77
2024/02/21 13:39:15;;;;;;;0.52;0.30;;;;;;;;;;5051563;28;20046;-77
2024/02/21 13:41:42;;;;;;;0.20;0.20;;;;;;;;;;5058128;28;20017;-78
2024/02/21 13:44:09;;;;;;;1.48;0.30;;;;;;;;;;5035755;28;20049;-77
2024/02/21 13:46:35;;;;;;;0.43;0.43;;;;;;;;;;5048135;28;20364;-77
2024/02/21 13:49:08;;;;;;;0.43;0.43;;;;;;;;;;5034735;28;20034;-78
2024/02/21 13:51:40;;;;;;;0.30;0.30;;;;;;;;;;5036546;28;20022;-77
2024/02/21 13:54:09;;;;;;;0.63;0.38;;;;;;;;;;5022868;28;20026;-77
2024/02/21 13:56:35;;;;;;;0.25;0.20;;;;;;;;;;5042072;28;20666;-77
2024/02/21 13:59:01;;;;;;;0.40;0.40;;;;;;;;;;5020996;28;20024;-77
2024/02/21 14:01:33;;;;;;;0.17;0.17;;;;;;;;;;5032143;28;20037;-77
2024/02/21 14:03:59;;;;;;;;;;;;;;;;;;5027351;28;20029;-79
2024/02/21 14:06:25;;;;;;;0.60;0.20;;;;;;;;;;5019956;28;19909;-77
2024/02/21 14:08:51;;;;;;;0.75;0.22;;;;;;;;;;5020609;28;20097;-78
2024/02/21 14:11:17;;;;;;;0.30;0.30;;;;;;;;;;5036120;28;20034;-79
2024/02/21 14:13:44;;;;;;;0.22;0.22;;;;;;;;;;5020748;28;20045;-78
2024/02/21 14:16:14;;;;;;;0.40;0.30;;;;;;;;;;5031601;28;20022;-77
2024/02/21 14:18:43;;;;;;;0.20;0.20;;;;;;;;;;5027637;28;20022;-78
2024/02/21 14:21:12;;;;;;;0.30;0.30;;;;;;;;;;5027501;28;20034;-78
2024/02/21 14:23:38;;;;;;;0.35;0.30;;;;;;;;;;5035144;28;20025;-77
2024/02/21 14:26:06;;;;;;;0.55;0.45;;;;;;;;;;5028704;28;20508;-78
2024/02/21 14:28:33;;;;;;;0.30;0.30;;;;;;;;;;5018077;28;20651;-78
2024/02/21 14:31:00;;;;;;;0.32;0.32;;;;;;;;;;5019222;28;20080;-78
2024/02/21 14:33:29;;;;;;;0.70;0.30;;;;;;;;;;5021626;28;20022;-78
2024/02/21 14:35:55;;;;;;;0.43;0.30;;;;;;;;;;5025510;28;20022;-79
2024/02/21 14:38:21;;;;;;;0.63;0.50;;;;;;;;;;5018834;28;20040;-77
2024/02/21 14:40:48;;;;;;;1.60;0.30;;;;;;;;;;5022183;28;20145;-78